sensor_id;sensor_type;location;lat;lon;timestamp;P1;durP1;ratioP1;P2;durP2;ratioP2
15082;SDS011;7640;53.116;6.878;2024-02-21T00:02:03;9.37;;;4.23;;
15082;SDS011;7640;53.116;6.878;2024-02-21T00:04:32;8.80;;;4.53;;
15082;SDS011;7640;53.116;6.878;2024-02-21T00:07:02;11.80;;;4.13;;
15082;SDS011;7640;53.116;6.878;2024-02-21T00:09:31;12.80;;;3.90;;
15082;SDS011;7640;53.116;6.878;2024-02-21T00:12:00;10.40;;;3.97;;
15082;SDS011;7640;53.116;6.878;2024-02-21T00:14:29;11.57;;;4.17;;
15082;SDS011;7640;53.116;6.878;2024-02-21T00:16:58;9.90;;;3.73;;
15082;SDS011;7640;53.116;6.878;2024-02-21T00:19:28;13.63;;;4.43;;
15082;SDS011;7640;53.116;6.878;2024-02-21T00:21:57;10.53;;;4.43;;
15082;SDS011;7640;53.116;6.878;2024-02-21T00:24:25;10.47;;;3.97;;
15082;SDS011;7640;53.116;6.878;2024-02-21T00:26:53;13.37;;;3.90;;
15082;SDS011;7640;53.116;6.878;2024-02-21T00:29:22;16.00;;;5.77;;
15082;SDS011;7640;53.116;6.878;2024-02-21T00:31:51;11.23;;;4.47;;
15082;SDS011;7640;53.116;6.878;2024-02-21T00:34:19;14.07;;;4.67;;
15082;SDS011;7640;53.116;6.878;2024-02-21T00:36:50;11.77;;;3.73;;
15082;SDS011;7640;53.116;6.878;2024-02-21T00:39:19;15.10;;;4.10;;
15082;SDS011;7640;53.116;6.878;2024-02-21T00:41:48;12.80;;;4.47;;
15082;SDS011;7640;53.116;6.878;2024-02-21T00:44:16;12.23;;;3.73;;
15082;SDS011;7640;53.116;6.878;2024-02-21T00:46:45;14.33;;;4.53;;
15082;SDS011;7640;53.116;6.878;2024-02-21T00:49:14;19.27;;;4.90;;
15082;SDS011;7640;53.116;6.878;2024-02-21T00:51:43;12.90;;;4.03;;
15082;SDS011;7640;53.116;6.878;2024-02-21T00:54:13;12.60;;;4.37;;
15082;SDS011;7640;53.116;6.878;2024-02-21T00:56:42;16.27;;;4.97;;
15082;SDS011;7640;53.116;6.878;2024-02-21T00:59:11;15.17;;;4.40;;
15082;SDS011;7640;53.116;6.878;2024-02-21T01:01:39;18.00;;;4.20;;
15082;SDS011;7640;53.116;6.878;2024-02-21T01:04:09;10.90;;;4.63;;
15082;SDS011;7640;53.116;6.878;2024-02-21T01:06:38;16.77;;;5.03;;
15082;SDS011;7640;53.116;6.878;2024-02-21T01:09:10;19.47;;;5.90;;
15082;SDS011;7640;53.116;6.878;2024-02-21T01:11:41;17.37;;;5.13;;
15082;SDS011;7640;53.116;6.878;2024-02-21T01:14:10;15.13;;;4.47;;
15082;SDS011;7640;53.116;6.878;2024-02-21T01:16:39;14.57;;;4.40;;
15082;SDS011;7640;53.116;6.878;2024-02-21T01:19:07;17.40;;;5.03;;
15082;SDS011;7640;53.116;6.878;2024-02-21T01:21:36;14.50;;;4.73;;
15082;SDS011;7640;53.116;6.878;2024-02-21T01:24:05;18.27;;;5.00;;
15082;SDS011;7640;53.116;6.878;2024-02-21T01:26:35;18.10;;;5.77;;
15082;SDS011;7640;53.116;6.878;2024-02-21T01:29:05;16.23;;;5.27;;
15082;SDS011;7640;53.116;6.878;2024-02-21T01:31:34;13.60;;;4.60;;
15082;SDS011;7640;53.116;6.878;2024-02-21T01:34:03;18.97;;;5.27;;
15082;SDS011;7640;53.116;6.878;2024-02-21T01:36:31;13.60;;;5.13;;
15082;SDS011;7640;53.116;6.878;2024-02-21T01:39:01;17.63;;;5.27;;
15082;SDS011;7640;53.116;6.878;2024-02-21T01:41:30;15.37;;;4.60;;
15082;SDS011;7640;53.116;6.878;2024-02-21T01:44:00;15.37;;;5.37;;
15082;SDS011;7640;53.116;6.878;2024-02-21T01:46:29;17.87;;;5.17;;
15082;SDS011;7640;53.116;6.878;2024-02-21T01:48:58;18.07;;;5.50;;
15082;SDS011;7640;53.116;6.878;2024-02-21T01:51:27;16.80;;;5.17;;
15082;SDS011;7640;53.116;6.878;2024-02-21T01:53:57;15.33;;;5.77;;
15082;SDS011;7640;53.116;6.878;2024-02-21T01:56:26;15.53;;;5.60;;
15082;SDS011;7640;53.116;6.878;2024-02-21T01:58:55;17.87;;;5.70;;
15082;SDS011;7640;53.116;6.878;2024-02-21T02:01:26;13.60;;;5.20;;
15082;SDS011;7640;53.116;6.878;2024-02-21T02:03:54;18.57;;;5.97;;
15082;SDS011;7640;53.116;6.878;2024-02-21T02:06:24;16.63;;;5.77;;
15082;SDS011;7640;53.116;6.878;2024-02-21T02:08:54;17.27;;;6.20;;
15082;SDS011;7640;53.116;6.878;2024-02-21T02:11:22;15.37;;;5.87;;
15082;SDS011;7640;53.116;6.878;2024-02-21T02:13:51;19.63;;;5.90;;
15082;SDS011;7640;53.116;6.878;2024-02-21T02:16:20;18.63;;;6.20;;
15082;SDS011;7640;53.116;6.878;2024-02-21T02:18:50;18.23;;;5.93;;
15082;SDS011;7640;53.116;6.878;2024-02-21T02:21:22;15.43;;;5.90;;
15082;SDS011;7640;53.116;6.878;2024-02-21T02:24:03;13.13;;;5.53;;
15082;SDS011;7640;53.116;6.878;2024-02-21T02:26:32;13.57;;;5.43;;
15082;SDS011;7640;53.116;6.878;2024-02-21T02:29:01;16.10;;;6.03;;
15082;SDS011;7640;53.116;6.878;2024-02-21T02:31:30;15.67;;;5.90;;
15082;SDS011;7640;53.116;6.878;2024-02-21T02:33:58;14.60;;;5.73;;
15082;SDS011;7640;53.116;6.878;2024-02-21T02:36:27;14.63;;;6.07;;
15082;SDS011;7640;53.116;6.878;2024-02-21T02:39:00;14.13;;;6.27;;
15082;SDS011;7640;53.116;6.878;2024-02-21T02:41:34;15.80;;;6.07;;
15082;SDS011;7640;53.116;6.878;2024-02-21T02:44:03;15.70;;;7.23;;
15082;SDS011;7640;53.116;6.878;2024-02-21T02:46:32;13.40;;;6.57;;
15082;SDS011;7640;53.116;6.878;2024-02-21T02:49:00;12.27;;;6.83;;
15082;SDS011;7640;53.116;6.878;2024-02-21T02:51:31;17.30;;;7.10;;
15082;SDS011;7640;53.116;6.878;2024-02-21T02:54:01;17.33;;;6.97;;
15082;SDS011;7640;53.116;6.878;2024-02-21T02:56:32;17.67;;;8.07;;
15082;SDS011;7640;53.116;6.878;2024-02-21T02:59:00;16.90;;;8.00;;
15082;SDS011;7640;53.116;6.878;2024-02-21T03:01:33;22.43;;;8.80;;
15082;SDS011;7640;53.116;6.878;2024-02-21T03:04:03;17.90;;;8.87;;
15082;SDS011;7640;53.116;6.878;2024-02-21T03:06:31;15.17;;;7.80;;
15082;SDS011;7640;53.116;6.878;2024-02-21T03:09:01;19.40;;;9.07;;
15082;SDS011;7640;53.116;6.878;2024-02-21T03:11:36;21.27;;;9.27;;
15082;SDS011;7640;53.116;6.878;2024-02-21T03:14:07;19.10;;;9.27;;
15082;SDS011;7640;53.116;6.878;2024-02-21T03:16:36;26.43;;;9.50;;
15082;SDS011;7640;53.116;6.878;2024-02-21T03:19:05;24.53;;;9.90;;
15082;SDS011;7640;53.116;6.878;2024-02-21T03:21:34;25.40;;;10.57;;
15082;SDS011;7640;53.116;6.878;2024-02-21T03:24:03;24.63;;;10.27;;
15082;SDS011;7640;53.116;6.878;2024-02-21T03:26:32;23.50;;;10.80;;
15082;SDS011;7640;53.116;6.878;2024-02-21T03:29:03;22.70;;;10.00;;
15082;SDS011;7640;53.116;6.878;2024-02-21T03:31:31;20.77;;;9.93;;
15082;SDS011;7640;53.116;6.878;2024-02-21T03:34:00;27.13;;;10.83;;
15082;SDS011;7640;53.116;6.878;2024-02-21T03:36:29;22.57;;;10.27;;
15082;SDS011;7640;53.116;6.878;2024-02-21T03:38:58;22.83;;;9.63;;
15082;SDS011;7640;53.116;6.878;2024-02-21T03:41:28;28.47;;;11.50;;
15082;SDS011;7640;53.116;6.878;2024-02-21T03:43:57;26.27;;;10.23;;
15082;SDS011;7640;53.116;6.878;2024-02-21T03:46:27;22.57;;;10.87;;
15082;SDS011;7640;53.116;6.878;2024-02-21T03:48:56;25.83;;;10.80;;
15082;SDS011;7640;53.116;6.878;2024-02-21T03:51:24;28.87;;;10.93;;
15082;SDS011;7640;53.116;6.878;2024-02-21T03:53:53;26.60;;;10.00;;
15082;SDS011;7640;53.116;6.878;2024-02-21T03:56:22;28.33;;;11.37;;
15082;SDS011;7640;53.116;6.878;2024-02-21T03:58:50;27.07;;;11.37;;
15082;SDS011;7640;53.116;6.878;2024-02-21T04:01:19;30.57;;;11.90;;
15082;SDS011;7640;53.116;6.878;2024-02-21T04:03:49;35.87;;;12.87;;
15082;SDS011;7640;53.116;6.878;2024-02-21T04:06:17;33.27;;;12.43;;
15082;SDS011;7640;53.116;6.878;2024-02-21T04:08:47;37.07;;;13.23;;
15082;SDS011;7640;53.116;6.878;2024-02-21T04:11:15;31.57;;;12.37;;
15082;SDS011;7640;53.116;6.878;2024-02-21T04:13:45;27.70;;;13.50;;
15082;SDS011;7640;53.116;6.878;2024-02-21T04:16:17;28.37;;;12.17;;
15082;SDS011;7640;53.116;6.878;2024-02-21T04:18:45;30.07;;;12.30;;
15082;SDS011;7640;53.116;6.878;2024-02-21T04:21:16;27.97;;;11.47;;
15082;SDS011;7640;53.116;6.878;2024-02-21T04:23:45;31.90;;;11.80;;
15082;SDS011;7640;53.116;6.878;2024-02-21T04:26:14;36.60;;;12.20;;
15082;SDS011;7640;53.116;6.878;2024-02-21T04:28:44;32.70;;;12.17;;
15082;SDS011;7640;53.116;6.878;2024-02-21T04:31:13;23.07;;;10.87;;
15082;SDS011;7640;53.116;6.878;2024-02-21T04:33:42;28.27;;;11.27;;
15082;SDS011;7640;53.116;6.878;2024-02-21T04:36:11;29.07;;;11.40;;
15082;SDS011;7640;53.116;6.878;2024-02-21T04:38:41;26.77;;;11.40;;
15082;SDS011;7640;53.116;6.878;2024-02-21T04:41:10;33.53;;;12.13;;
15082;SDS011;7640;53.116;6.878;2024-02-21T04:43:38;36.43;;;12.40;;
15082;SDS011;7640;53.116;6.878;2024-02-21T04:46:07;30.33;;;11.80;;
15082;SDS011;7640;53.116;6.878;2024-02-21T04:48:36;29.13;;;11.70;;
15082;SDS011;7640;53.116;6.878;2024-02-21T04:51:05;27.83;;;12.50;;
15082;SDS011;7640;53.116;6.878;2024-02-21T04:53:33;29.07;;;12.47;;
15082;SDS011;7640;53.116;6.878;2024-02-21T04:56:04;29.20;;;12.50;;
15082;SDS011;7640;53.116;6.878;2024-02-21T04:58:37;31.27;;;12.20;;
15082;SDS011;7640;53.116;6.878;2024-02-21T05:01:06;35.47;;;13.13;;
15082;SDS011;7640;53.116;6.878;2024-02-21T05:03:35;29.33;;;12.83;;
15082;SDS011;7640;53.116;6.878;2024-02-21T05:06:04;32.77;;;13.53;;
15082;SDS011;7640;53.116;6.878;2024-02-21T05:08:34;27.97;;;13.77;;
15082;SDS011;7640;53.116;6.878;2024-02-21T05:11:04;33.50;;;14.57;;
15082;SDS011;7640;53.116;6.878;2024-02-21T05:13:34;32.07;;;13.80;;
15082;SDS011;7640;53.116;6.878;2024-02-21T05:16:03;30.10;;;14.47;;
15082;SDS011;7640;53.116;6.878;2024-02-21T05:18:32;38.97;;;13.90;;
15082;SDS011;7640;53.116;6.878;2024-02-21T05:21:01;30.63;;;14.23;;
15082;SDS011;7640;53.116;6.878;2024-02-21T05:23:31;29.40;;;14.77;;
15082;SDS011;7640;53.116;6.878;2024-02-21T05:25:59;30.20;;;14.10;;
15082;SDS011;7640;53.116;6.878;2024-02-21T05:28:30;31.37;;;14.03;;
15082;SDS011;7640;53.116;6.878;2024-02-21T05:30:59;29.83;;;14.40;;
15082;SDS011;7640;53.116;6.878;2024-02-21T05:33:30;34.57;;;14.83;;
15082;SDS011;7640;53.116;6.878;2024-02-21T05:35:58;32.57;;;14.17;;
15082;SDS011;7640;53.116;6.878;2024-02-21T05:38:27;32.23;;;14.40;;
15082;SDS011;7640;53.116;6.878;2024-02-21T05:40:56;35.00;;;15.13;;
15082;SDS011;7640;53.116;6.878;2024-02-21T05:43:25;36.20;;;13.83;;
15082;SDS011;7640;53.116;6.878;2024-02-21T05:45:54;32.93;;;14.40;;
15082;SDS011;7640;53.116;6.878;2024-02-21T05:48:24;36.53;;;13.53;;
15082;SDS011;7640;53.116;6.878;2024-02-21T05:50:53;32.67;;;12.80;;
15082;SDS011;7640;53.116;6.878;2024-02-21T05:53:22;36.77;;;14.47;;
15082;SDS011;7640;53.116;6.878;2024-02-21T05:55:51;35.63;;;13.53;;
15082;SDS011;7640;53.116;6.878;2024-02-21T05:58:20;36.63;;;14.57;;
15082;SDS011;7640;53.116;6.878;2024-02-21T06:00:48;34.13;;;13.33;;
15082;SDS011;7640;53.116;6.878;2024-02-21T06:03:18;37.77;;;14.17;;
15082;SDS011;7640;53.116;6.878;2024-02-21T06:05:47;31.73;;;13.73;;
15082;SDS011;7640;53.116;6.878;2024-02-21T06:08:17;31.33;;;14.03;;
15082;SDS011;7640;53.116;6.878;2024-02-21T06:10:45;37.00;;;13.73;;
15082;SDS011;7640;53.116;6.878;2024-02-21T06:13:15;38.30;;;14.00;;
15082;SDS011;7640;53.116;6.878;2024-02-21T06:15:43;39.03;;;15.60;;
15082;SDS011;7640;53.116;6.878;2024-02-21T06:18:13;33.97;;;14.27;;
15082;SDS011;7640;53.116;6.878;2024-02-21T06:20:44;37.70;;;14.77;;
15082;SDS011;7640;53.116;6.878;2024-02-21T06:23:15;41.43;;;15.90;;
15082;SDS011;7640;53.116;6.878;2024-02-21T06:25:44;33.57;;;15.10;;
15082;SDS011;7640;53.116;6.878;2024-02-21T06:28:14;39.23;;;15.67;;
15082;SDS011;7640;53.116;6.878;2024-02-21T06:30:43;33.77;;;15.13;;
15082;SDS011;7640;53.116;6.878;2024-02-21T06:33:12;43.83;;;16.37;;
15082;SDS011;7640;53.116;6.878;2024-02-21T06:35:40;38.63;;;15.67;;
15082;SDS011;7640;53.116;6.878;2024-02-21T06:38:13;42.07;;;16.50;;
15082;SDS011;7640;53.116;6.878;2024-02-21T06:40:43;39.53;;;15.77;;
15082;SDS011;7640;53.116;6.878;2024-02-21T06:43:17;39.40;;;16.30;;
15082;SDS011;7640;53.116;6.878;2024-02-21T06:45:47;39.63;;;16.87;;
15082;SDS011;7640;53.116;6.878;2024-02-21T06:48:17;50.00;;;17.60;;
15082;SDS011;7640;53.116;6.878;2024-02-21T06:50:47;50.40;;;18.37;;
15082;SDS011;7640;53.116;6.878;2024-02-21T06:53:17;50.30;;;17.80;;
15082;SDS011;7640;53.116;6.878;2024-02-21T06:55:45;47.67;;;17.70;;
15082;SDS011;7640;53.116;6.878;2024-02-21T06:58:15;53.93;;;19.10;;
15082;SDS011;7640;53.116;6.878;2024-02-21T07:00:44;48.57;;;18.53;;
15082;SDS011;7640;53.116;6.878;2024-02-21T07:03:12;61.93;;;19.30;;
15082;SDS011;7640;53.116;6.878;2024-02-21T07:05:41;54.00;;;19.90;;
15082;SDS011;7640;53.116;6.878;2024-02-21T07:08:10;49.70;;;17.63;;
15082;SDS011;7640;53.116;6.878;2024-02-21T07:10:40;55.50;;;18.03;;
15082;SDS011;7640;53.116;6.878;2024-02-21T07:13:09;49.93;;;17.73;;
15082;SDS011;7640;53.116;6.878;2024-02-21T07:15:37;53.43;;;16.47;;
15082;SDS011;7640;53.116;6.878;2024-02-21T07:18:06;48.43;;;16.37;;
15082;SDS011;7640;53.116;6.878;2024-02-21T07:20:35;52.60;;;17.67;;
15082;SDS011;7640;53.116;6.878;2024-02-21T07:23:05;48.57;;;16.53;;
15082;SDS011;7640;53.116;6.878;2024-02-21T07:25:34;52.10;;;16.50;;
15082;SDS011;7640;53.116;6.878;2024-02-21T07:28:04;57.17;;;17.20;;
15082;SDS011;7640;53.116;6.878;2024-02-21T07:30:34;52.23;;;16.67;;
15082;SDS011;7640;53.116;6.878;2024-02-21T07:33:03;54.33;;;17.00;;
15082;SDS011;7640;53.116;6.878;2024-02-21T07:35:33;46.97;;;17.73;;
15082;SDS011;7640;53.116;6.878;2024-02-21T07:38:04;49.47;;;17.23;;
15082;SDS011;7640;53.116;6.878;2024-02-21T07:40:32;48.77;;;17.00;;
15082;SDS011;7640;53.116;6.878;2024-02-21T07:43:04;40.03;;;16.13;;
15082;SDS011;7640;53.116;6.878;2024-02-21T07:45:33;45.07;;;16.17;;
15082;SDS011;7640;53.116;6.878;2024-02-21T07:48:02;47.00;;;16.27;;
15082;SDS011;7640;53.116;6.878;2024-02-21T07:50:32;46.67;;;16.87;;
15082;SDS011;7640;53.116;6.878;2024-02-21T07:53:01;42.33;;;15.83;;
15082;SDS011;7640;53.116;6.878;2024-02-21T07:55:30;41.13;;;16.17;;
15082;SDS011;7640;53.116;6.878;2024-02-21T07:57:58;40.33;;;15.60;;
15082;SDS011;7640;53.116;6.878;2024-02-21T08:00:28;42.83;;;15.90;;
15082;SDS011;7640;53.116;6.878;2024-02-21T08:02:57;30.10;;;15.27;;
15082;SDS011;7640;53.116;6.878;2024-02-21T08:05:26;40.37;;;16.47;;
15082;SDS011;7640;53.116;6.878;2024-02-21T08:07:56;36.43;;;15.93;;
15082;SDS011;7640;53.116;6.878;2024-02-21T08:10:25;35.00;;;15.27;;
15082;SDS011;7640;53.116;6.878;2024-02-21T08:12:53;35.67;;;15.43;;
15082;SDS011;7640;53.116;6.878;2024-02-21T08:15:22;34.43;;;14.17;;
15082;SDS011;7640;53.116;6.878;2024-02-21T08:17:56;40.97;;;14.83;;
15082;SDS011;7640;53.116;6.878;2024-02-21T08:20:28;35.13;;;14.07;;
15082;SDS011;7640;53.116;6.878;2024-02-21T08:22:56;34.77;;;14.23;;
15082;SDS011;7640;53.116;6.878;2024-02-21T08:25:25;32.97;;;14.10;;
15082;SDS011;7640;53.116;6.878;2024-02-21T08:27:58;32.13;;;13.97;;
15082;SDS011;7640;53.116;6.878;2024-02-21T08:30:27;30.03;;;14.10;;
15082;SDS011;7640;53.116;6.878;2024-02-21T08:32:57;33.23;;;15.87;;
15082;SDS011;7640;53.116;6.878;2024-02-21T08:35:26;35.93;;;15.73;;
15082;SDS011;7640;53.116;6.878;2024-02-21T08:37:54;36.47;;;15.57;;
15082;SDS011;7640;53.116;6.878;2024-02-21T08:40:23;38.07;;;16.83;;
15082;SDS011;7640;53.116;6.878;2024-02-21T08:42:52;31.40;;;15.20;;
15082;SDS011;7640;53.116;6.878;2024-02-21T08:45:20;40.10;;;16.57;;
15082;SDS011;7640;53.116;6.878;2024-02-21T08:47:49;35.67;;;17.50;;
15082;SDS011;7640;53.116;6.878;2024-02-21T08:50:19;36.63;;;16.30;;
15082;SDS011;7640;53.116;6.878;2024-02-21T08:52:54;38.07;;;16.57;;
15082;SDS011;7640;53.116;6.878;2024-02-21T08:55:23;36.70;;;16.57;;
15082;SDS011;7640;53.116;6.878;2024-02-21T08:57:52;37.43;;;16.87;;
15082;SDS011;7640;53.116;6.878;2024-02-21T09:00:21;33.27;;;16.40;;
15082;SDS011;7640;53.116;6.878;2024-02-21T09:02:54;35.13;;;18.13;;
15082;SDS011;7640;53.116;6.878;2024-02-21T09:05:25;41.40;;;17.47;;
15082;SDS011;7640;53.116;6.878;2024-02-21T09:07:55;39.77;;;17.53;;
15082;SDS011;7640;53.116;6.878;2024-02-21T09:10:23;42.33;;;19.23;;
15082;SDS011;7640;53.116;6.878;2024-02-21T09:12:52;39.43;;;18.80;;
15082;SDS011;7640;53.116;6.878;2024-02-21T09:15:20;33.73;;;17.20;;
15082;SDS011;7640;53.116;6.878;2024-02-21T09:17:50;35.77;;;18.03;;
15082;SDS011;7640;53.116;6.878;2024-02-21T09:20:20;38.90;;;19.10;;
15082;SDS011;7640;53.116;6.878;2024-02-21T09:22:51;40.33;;;19.23;;
15082;SDS011;7640;53.116;6.878;2024-02-21T09:25:20;32.50;;;17.27;;
15082;SDS011;7640;53.116;6.878;2024-02-21T09:27:49;33.50;;;18.67;;
15082;SDS011;7640;53.116;6.878;2024-02-21T09:30:21;34.03;;;19.53;;
15082;SDS011;7640;53.116;6.878;2024-02-21T09:32:49;34.27;;;20.80;;
15082;SDS011;7640;53.116;6.878;2024-02-21T09:35:19;37.33;;;20.93;;
15082;SDS011;7640;53.116;6.878;2024-02-21T09:37:51;39.03;;;20.30;;
15082;SDS011;7640;53.116;6.878;2024-02-21T09:40:20;43.23;;;22.83;;
15082;SDS011;7640;53.116;6.878;2024-02-21T09:42:49;38.70;;;21.80;;
15082;SDS011;7640;53.116;6.878;2024-02-21T09:45:27;44.10;;;21.83;;
15082;SDS011;7640;53.116;6.878;2024-02-21T09:47:59;44.20;;;23.90;;
15082;SDS011;7640;53.116;6.878;2024-02-21T09:50:43;39.10;;;22.03;;
15082;SDS011;7640;53.116;6.878;2024-02-21T09:53:16;37.70;;;22.97;;
15082;SDS011;7640;53.116;6.878;2024-02-21T09:55:46;42.17;;;22.90;;
15082;SDS011;7640;53.116;6.878;2024-02-21T09:58:16;39.23;;;22.33;;
15082;SDS011;7640;53.116;6.878;2024-02-21T10:00:45;38.50;;;22.90;;
15082;SDS011;7640;53.116;6.878;2024-02-21T10:03:13;39.70;;;22.47;;
15082;SDS011;7640;53.116;6.878;2024-02-21T10:05:47;39.13;;;22.70;;
15082;SDS011;7640;53.116;6.878;2024-02-21T10:08:19;40.97;;;23.23;;
15082;SDS011;7640;53.116;6.878;2024-02-21T10:10:47;44.23;;;23.33;;
15082;SDS011;7640;53.116;6.878;2024-02-21T10:13:23;40.20;;;22.80;;
15082;SDS011;7640;53.116;6.878;2024-02-21T10:16:01;37.60;;;21.87;;
15082;SDS011;7640;53.116;6.878;2024-02-21T10:18:31;45.30;;;23.97;;
15082;SDS011;7640;53.116;6.878;2024-02-21T10:21:01;34.77;;;22.13;;
15082;SDS011;7640;53.116;6.878;2024-02-21T10:23:42;39.63;;;23.07;;
15082;SDS011;7640;53.116;6.878;2024-02-21T10:26:12;40.83;;;21.83;;
15082;SDS011;7640;53.116;6.878;2024-02-21T10:28:40;36.60;;;22.20;;
15082;SDS011;7640;53.116;6.878;2024-02-21T10:31:20;43.57;;;23.63;;
15082;SDS011;7640;53.116;6.878;2024-02-21T10:33:55;39.53;;;22.37;;
15082;SDS011;7640;53.116;6.878;2024-02-21T10:36:25;37.20;;;22.37;;
15082;SDS011;7640;53.116;6.878;2024-02-21T10:38:55;37.13;;;22.60;;
15082;SDS011;7640;53.116;6.878;2024-02-21T10:41:24;35.07;;;22.83;;
15082;SDS011;7640;53.116;6.878;2024-02-21T10:43:54;35.37;;;22.00;;
15082;SDS011;7640;53.116;6.878;2024-02-21T10:46:25;36.23;;;21.40;;
15082;SDS011;7640;53.116;6.878;2024-02-21T10:48:59;35.93;;;21.33;;
15082;SDS011;7640;53.116;6.878;2024-02-21T10:51:35;33.40;;;21.20;;
15082;SDS011;7640;53.116;6.878;2024-02-21T10:54:16;35.23;;;21.83;;
15082;SDS011;7640;53.116;6.878;2024-02-21T10:57:08;33.53;;;21.40;;
15082;SDS011;7640;53.116;6.878;2024-02-21T10:59:38;36.77;;;22.93;;
15082;SDS011;7640;53.116;6.878;2024-02-21T11:02:08;29.97;;;20.37;;
15082;SDS011;7640;53.116;6.878;2024-02-21T11:04:37;35.87;;;21.83;;
15082;SDS011;7640;53.116;6.878;2024-02-21T11:07:08;35.17;;;20.30;;
15082;SDS011;7640;53.116;6.878;2024-02-21T11:09:39;31.20;;;20.57;;
15082;SDS011;7640;53.116;6.878;2024-02-21T11:12:08;31.83;;;18.17;;
15082;SDS011;7640;53.116;6.878;2024-02-21T11:14:38;32.30;;;19.23;;
15082;SDS011;7640;53.116;6.878;2024-02-21T11:17:14;26.57;;;18.60;;
15082;SDS011;7640;53.116;6.878;2024-02-21T11:19:44;28.80;;;20.13;;
15082;SDS011;7640;53.116;6.878;2024-02-21T11:22:15;30.30;;;18.67;;
15082;SDS011;7640;53.116;6.878;2024-02-21T11:24:48;27.80;;;18.77;;
15082;SDS011;7640;53.116;6.878;2024-02-21T11:27:18;28.60;;;18.00;;
15082;SDS011;7640;53.116;6.878;2024-02-21T11:29:49;26.53;;;16.90;;
15082;SDS011;7640;53.116;6.878;2024-02-21T11:32:22;24.30;;;15.70;;
15082;SDS011;7640;53.116;6.878;2024-02-21T11:34:54;25.17;;;15.20;;
15082;SDS011;7640;53.116;6.878;2024-02-21T11:37:29;24.93;;;15.80;;
15082;SDS011;7640;53.116;6.878;2024-02-21T11:40:01;22.27;;;15.40;;
15082;SDS011;7640;53.116;6.878;2024-02-21T11:42:33;21.53;;;14.10;;
15082;SDS011;7640;53.116;6.878;2024-02-21T11:45:03;21.57;;;14.27;;
15082;SDS011;7640;53.116;6.878;2024-02-21T11:47:33;19.90;;;13.50;;
15082;SDS011;7640;53.116;6.878;2024-02-21T11:50:09;25.23;;;14.27;;
15082;SDS011;7640;53.116;6.878;2024-02-21T11:52:40;24.03;;;13.63;;
15082;SDS011;7640;53.116;6.878;2024-02-21T11:55:12;25.17;;;14.20;;
15082;SDS011;7640;53.116;6.878;2024-02-21T11:57:40;19.70;;;13.37;;
15082;SDS011;7640;53.116;6.878;2024-02-21T12:00:14;22.90;;;13.70;;
15082;SDS011;7640;53.116;6.878;2024-02-21T12:02:47;20.60;;;13.77;;
15082;SDS011;7640;53.116;6.878;2024-02-21T12:05:18;19.93;;;12.60;;
15082;SDS011;7640;53.116;6.878;2024-02-21T12:07:47;18.33;;;13.20;;
15082;SDS011;7640;53.116;6.878;2024-02-21T12:10:17;21.57;;;11.57;;
15082;SDS011;7640;53.116;6.878;2024-02-21T12:12:46;19.30;;;12.73;;
15082;SDS011;7640;53.116;6.878;2024-02-21T12:15:18;19.57;;;11.97;;
15082;SDS011;7640;53.116;6.878;2024-02-21T12:17:47;19.00;;;12.87;;
15082;SDS011;7640;53.116;6.878;2024-02-21T12:20:18;21.93;;;13.33;;
15082;SDS011;7640;53.116;6.878;2024-02-21T12:22:49;20.63;;;12.73;;
15082;SDS011;7640;53.116;6.878;2024-02-21T12:25:20;20.07;;;13.40;;
15082;SDS011;7640;53.116;6.878;2024-02-21T12:27:52;18.50;;;12.30;;
15082;SDS011;7640;53.116;6.878;2024-02-21T12:30:23;20.77;;;12.20;;
15082;SDS011;7640;53.116;6.878;2024-02-21T12:32:51;20.00;;;12.93;;
15082;SDS011;7640;53.116;6.878;2024-02-21T12:35:21;21.27;;;12.90;;
15082;SDS011;7640;53.116;6.878;2024-02-21T12:37:49;17.93;;;11.97;;
15082;SDS011;7640;53.116;6.878;2024-02-21T12:40:20;19.17;;;11.47;;
15082;SDS011;7640;53.116;6.878;2024-02-21T12:42:49;17.07;;;11.77;;
15082;SDS011;7640;53.116;6.878;2024-02-21T12:45:19;19.93;;;11.80;;
15082;SDS011;7640;53.116;6.878;2024-02-21T12:47:47;16.70;;;11.30;;
15082;SDS011;7640;53.116;6.878;2024-02-21T12:50:16;16.17;;;12.00;;
15082;SDS011;7640;53.116;6.878;2024-02-21T12:52:46;17.93;;;11.53;;
15082;SDS011;7640;53.116;6.878;2024-02-21T12:55:15;15.37;;;10.53;;
15082;SDS011;7640;53.116;6.878;2024-02-21T12:57:47;15.43;;;10.53;;
15082;SDS011;7640;53.116;6.878;2024-02-21T13:00:16;12.33;;;9.40;;
15082;SDS011;7640;53.116;6.878;2024-02-21T13:02:46;12.17;;;9.33;;
15082;SDS011;7640;53.116;6.878;2024-02-21T13:05:15;14.30;;;9.37;;
15082;SDS011;7640;53.116;6.878;2024-02-21T13:07:43;13.93;;;9.47;;
15082;SDS011;7640;53.116;6.878;2024-02-21T13:10:13;13.93;;;9.30;;
15082;SDS011;7640;53.116;6.878;2024-02-21T13:12:42;14.60;;;9.40;;
15082;SDS011;7640;53.116;6.878;2024-02-21T13:15:12;13.43;;;9.53;;
15082;SDS011;7640;53.116;6.878;2024-02-21T13:17:42;10.83;;;8.70;;
15082;SDS011;7640;53.116;6.878;2024-02-21T13:20:12;12.70;;;9.10;;
15082;SDS011;7640;53.116;6.878;2024-02-21T13:22:41;12.60;;;8.10;;
15082;SDS011;7640;53.116;6.878;2024-02-21T13:25:10;13.70;;;8.13;;
15082;SDS011;7640;53.116;6.878;2024-02-21T13:27:42;11.67;;;7.73;;
15082;SDS011;7640;53.116;6.878;2024-02-21T13:30:12;15.13;;;7.30;;
15082;SDS011;7640;53.116;6.878;2024-02-21T13:32:42;12.53;;;7.80;;
15082;SDS011;7640;53.116;6.878;2024-02-21T13:35:12;12.63;;;7.43;;
15082;SDS011;7640;53.116;6.878;2024-02-21T13:37:42;9.87;;;7.80;;
15082;SDS011;7640;53.116;6.878;2024-02-21T13:40:11;13.20;;;7.97;;
15082;SDS011;7640;53.116;6.878;2024-02-21T13:42:40;11.50;;;7.50;;
15082;SDS011;7640;53.116;6.878;2024-02-21T13:45:09;11.87;;;7.43;;
15082;SDS011;7640;53.116;6.878;2024-02-21T13:47:40;10.70;;;7.17;;
15082;SDS011;7640;53.116;6.878;2024-02-21T13:50:09;10.10;;;6.97;;
15082;SDS011;7640;53.116;6.878;2024-02-21T13:52:38;8.47;;;6.60;;
15082;SDS011;7640;53.116;6.878;2024-02-21T13:55:08;8.13;;;6.43;;
15082;SDS011;7640;53.116;6.878;2024-02-21T13:57:38;8.67;;;6.40;;
15082;SDS011;7640;53.116;6.878;2024-02-21T14:00:09;9.53;;;6.57;;
15082;SDS011;7640;53.116;6.878;2024-02-21T14:02:41;7.50;;;6.37;;
15082;SDS011;7640;53.116;6.878;2024-02-21T14:05:10;8.63;;;6.30;;
15082;SDS011;7640;53.116;6.878;2024-02-21T14:07:39;8.43;;;6.73;;
15082;SDS011;7640;53.116;6.878;2024-02-21T14:10:08;8.30;;;6.53;;
15082;SDS011;7640;53.116;6.878;2024-02-21T14:12:37;9.43;;;6.50;;
15082;SDS011;7640;53.116;6.878;2024-02-21T14:15:06;10.10;;;6.77;;
15082;SDS011;7640;53.116;6.878;2024-02-21T14:17:38;7.73;;;6.33;;
15082;SDS011;7640;53.116;6.878;2024-02-21T14:20:07;8.60;;;6.17;;
15082;SDS011;7640;53.116;6.878;2024-02-21T14:22:41;9.40;;;7.13;;
15082;SDS011;7640;53.116;6.878;2024-02-21T14:25:10;8.33;;;6.53;;
15082;SDS011;7640;53.116;6.878;2024-02-21T14:27:38;10.43;;;7.23;;
15082;SDS011;7640;53.116;6.878;2024-02-21T14:30:10;11.43;;;7.50;;
15082;SDS011;7640;53.116;6.878;2024-02-21T14:32:41;9.70;;;7.37;;
15082;SDS011;7640;53.116;6.878;2024-02-21T14:35:13;11.33;;;7.97;;
15082;SDS011;7640;53.116;6.878;2024-02-21T14:37:42;11.80;;;7.90;;
15082;SDS011;7640;53.116;6.878;2024-02-21T14:40:12;10.93;;;7.77;;
15082;SDS011;7640;53.116;6.878;2024-02-21T14:42:41;10.17;;;7.47;;
15082;SDS011;7640;53.116;6.878;2024-02-21T14:45:10;11.63;;;8.00;;
15082;SDS011;7640;53.116;6.878;2024-02-21T14:47:41;10.30;;;7.47;;
15082;SDS011;7640;53.116;6.878;2024-02-21T14:50:10;11.53;;;8.10;;
15082;SDS011;7640;53.116;6.878;2024-02-21T14:52:39;14.90;;;8.20;;
15082;SDS011;7640;53.116;6.878;2024-02-21T14:55:12;10.43;;;8.00;;
15082;SDS011;7640;53.116;6.878;2024-02-21T14:57:41;13.53;;;8.10;;